sensor_id;sensor_type;location;lat;lon;timestamp;temperature;humidity
10566;DHT22;5331;48.148;16.326;2022-11-15T00:02:16;6.40;1.00
10566;DHT22;5331;48.148;16.326;2022-11-15T00:04:43;6.40;1.00
10566;DHT22;5331;48.148;16.326;2022-11-15T00:07:10;6.40;1.00
10566;DHT22;5331;48.148;16.326;2022-11-15T00:09:39;6.50;1.00
10566;DHT22;5331;48.148;16.326;2022-11-15T00:12:06;6.50;1.00
10566;DHT22;5331;48.148;16.326;2022-11-15T00:14:33;6.50;1.00
10566;DHT22;5331;48.148;16.326;2022-11-15T00:17:00;6.50;1.00
10566;DHT22;5331;48.148;16.326;2022-11-15T00:19:27;6.50;1.00
10566;DHT22;5331;48.148;16.326;2022-11-15T00:21:55;6.50;1.00
10566;DHT22;5331;48.148;16.326;2022-11-15T00:24:22;6.50;1.00
10566;DHT22;5331;48.148;16.326;2022-11-15T00:26:50;6.50;1.00
10566;DHT22;5331;48.148;16.326;2022-11-15T00:29:17;6.50;1.00
10566;DHT22;5331;48.148;16.326;2022-11-15T00:31:44;6.50;1.00
10566;DHT22;5331;48.148;16.326;2022-11-15T00:34:12;6.60;1.00
10566;DHT22;5331;48.148;16.326;2022-11-15T00:36:39;6.60;1.00
10566;DHT22;5331;48.148;16.326;2022-11-15T00:39:06;6.60;1.00
10566;DHT22;5331;48.148;16.326;2022-11-15T00:41:33;6.60;1.00
10566;DHT22;5331;48.148;16.326;2022-11-15T00:44:02;6.60;1.00
10566;DHT22;5331;48.148;16.326;2022-11-15T00:46:29;6.60;1.00
10566;DHT22;5331;48.148;16.326;2022-11-15T00:48:56;6.60;1.00
10566;DHT22;5331;48.148;16.326;2022-11-15T00:51:23;6.60;1.00
10566;DHT22;5331;48.148;16.326;2022-11-15T00:53:50;6.60;1.00
10566;DHT22;5331;48.148;16.326;2022-11-15T00:56:17;6.60;1.00
10566;DHT22;5331;48.148;16.326;2022-11-15T00:58:45;6.50;1.00
10566;DHT22;5331;48.148;16.326;2022-11-15T01:01:14;6.60;1.00
10566;DHT22;5331;48.148;16.326;2022-11-15T01:03:41;6.60;1.00
10566;DHT22;5331;48.148;16.326;2022-11-15T01:06:09;6.60;1.00
10566;DHT22;5331;48.148;16.326;2022-11-15T01:08:38;6.60;1.00
10566;DHT22;5331;48.148;16.326;2022-11-15T01:11:07;6.60;1.00
10566;DHT22;5331;48.148;16.326;2022-11-15T01:13:35;6.60;1.00
10566;DHT22;5331;48.148;16.326;2022-11-15T01:16:07;6.60;1.00
10566;DHT22;5331;48.148;16.326;2022-11-15T01:18:36;6.60;1.00
10566;DHT22;5331;48.148;16.326;2022-11-15T01:21:07;6.60;1.00
10566;DHT22;5331;48.148;16.326;2022-11-15T01:23:35;6.60;1.00
10566;DHT22;5331;48.148;16.326;2022-11-15T01:26:03;6.60;1.00
10566;DHT22;5331;48.148;16.326;2022-11-15T01:28:31;6.60;1.00
10566;DHT22;5331;48.148;16.326;2022-11-15T01:30:59;6.60;1.00
10566;DHT22;5331;48.148;16.326;2022-11-15T01:33:26;6.60;1.00
10566;DHT22;5331;48.148;16.326;2022-11-15T01:35:55;6.60;1.00
10566;DHT22;5331;48.148;16.326;2022-11-15T01:38:22;6.60;1.00
10566;DHT22;5331;48.148;16.326;2022-11-15T01:40:49;6.60;1.00
10566;DHT22;5331;48.148;16.326;2022-11-15T01:43:20;6.60;1.00
10566;DHT22;5331;48.148;16.326;2022-11-15T01:45:50;6.60;1.00
10566;DHT22;5331;48.148;16.326;2022-11-15T01:48:18;6.60;1.00
10566;DHT22;5331;48.148;16.326;2022-11-15T01:50:45;6.50;1.00
10566;DHT22;5331;48.148;16.326;2022-11-15T01:53:14;6.50;1.00
10566;DHT22;5331;48.148;16.326;2022-11-15T01:55:41;6.50;1.00
10566;DHT22;5331;48.148;16.326;2022-11-15T01:58:08;6.50;1.00
10566;DHT22;5331;48.148;16.326;2022-11-15T02:00:35;6.50;1.00
10566;DHT22;5331;48.148;16.326;2022-11-15T02:03:02;6.60;1.00
10566;DHT22;5331;48.148;16.326;2022-11-15T02:05:30;6.50;1.00
10566;DHT22;5331;48.148;16.326;2022-11-15T02:07:57;6.60;1.00
10566;DHT22;5331;48.148;16.326;2022-11-15T02:10:27;6.60;1.00
10566;DHT22;5331;48.148;16.326;2022-11-15T02:12:54;6.60;1.00
10566;DHT22;5331;48.148;16.326;2022-11-15T02:15:24;6.60;1.00
10566;DHT22;5331;48.148;16.326;2022-11-15T02:18:02;6.60;1.00
10566;DHT22;5331;48.148;16.326;2022-11-15T02:20:52;6.60;1.00
10566;DHT22;5331;48.148;16.326;2022-11-15T02:24:06;6.50;1.00
10566;DHT22;5331;48.148;16.326;2022-11-15T02:26:51;6.60;1.00
10566;DHT22;5331;48.148;16.326;2022-11-15T02:29:27;6.50;1.00
10566;DHT22;5331;48.148;16.326;2022-11-15T02:32:04;6.60;1.00
10566;DHT22;5331;48.148;16.326;2022-11-15T02:34:39;6.60;1.00
10566;DHT22;5331;48.148;16.326;2022-11-15T02:37:15;6.60;1.00
10566;DHT22;5331;48.148;16.326;2022-11-15T02:39:49;6.60;1.00
10566;DHT22;5331;48.148;16.326;2022-11-15T02:42:21;6.60;1.00
10566;DHT22;5331;48.148;16.326;2022-11-15T02:45:09;6.60;1.00
10566;DHT22;5331;48.148;16.326;2022-11-15T02:47:42;6.60;1.00
10566;DHT22;5331;48.148;16.326;2022-11-15T02:50:12;6.60;1.00
10566;DHT22;5331;48.148;16.326;2022-11-15T02:52:40;6.60;1.00
10566;DHT22;5331;48.148;16.326;2022-11-15T02:55:25;6.60;1.00
10566;DHT22;5331;48.148;16.326;2022-11-15T02:57:57;6.60;1.00
10566;DHT22;5331;48.148;16.326;2022-11-15T03:00:31;6.50;1.00
10566;DHT22;5331;48.148;16.326;2022-11-15T03:03:18;6.60;1.00
10566;DHT22;5331;48.148;16.326;2022-11-15T03:05:55;6.60;1.00
10566;DHT22;5331;48.148;16.326;2022-11-15T03:08:29;6.60;1.00
10566;DHT22;5331;48.148;16.326;2022-11-15T03:11:03;6.50;1.00
10566;DHT22;5331;48.148;16.326;2022-11-15T03:13:37;6.60;1.00
10566;DHT22;5331;48.148;16.326;2022-11-15T03:16:11;6.60;1.00
10566;DHT22;5331;48.148;16.326;2022-11-15T03:18:46;6.60;1.00
10566;DHT22;5331;48.148;16.326;2022-11-15T03:21:14;6.60;1.00
10566;DHT22;5331;48.148;16.326;2022-11-15T03:23:43;6.60;1.00
10566;DHT22;5331;48.148;16.326;2022-11-15T03:26:13;6.60;1.00
10566;DHT22;5331;48.148;16.326;2022-11-15T03:28:43;6.60;1.00
10566;DHT22;5331;48.148;16.326;2022-11-15T03:31:14;6.60;1.00
10566;DHT22;5331;48.148;16.326;2022-11-15T03:34:02;6.60;1.00
10566;DHT22;5331;48.148;16.326;2022-11-15T03:36:33;6.60;1.00
10566;DHT22;5331;48.148;16.326;2022-11-15T03:39:04;6.60;1.00
10566;DHT22;5331;48.148;16.326;2022-11-15T03:41:37;6.60;1.00
10566;DHT22;5331;48.148;16.326;2022-11-15T03:44:11;6.60;1.00
10566;DHT22;5331;48.148;16.326;2022-11-15T03:46:44;6.50;1.00
10566;DHT22;5331;48.148;16.326;2022-11-15T03:49:17;6.50;1.00
10566;DHT22;5331;48.148;16.326;2022-11-15T03:51:46;6.60;1.00
10566;DHT22;5331;48.148;16.326;2022-11-15T03:54:13;6.50;1.00
10566;DHT22;5331;48.148;16.326;2022-11-15T03:56:40;6.50;1.00
10566;DHT22;5331;48.148;16.326;2022-11-15T03:59:07;6.50;1.00
10566;DHT22;5331;48.148;16.326;2022-11-15T04:01:34;6.50;1.00
10566;DHT22;5331;48.148;16.326;2022-11-15T04:04:01;6.60;1.00
10566;DHT22;5331;48.148;16.326;2022-11-15T04:06:29;6.50;1.00
10566;DHT22;5331;48.148;16.326;2022-11-15T04:08:56;6.50;1.00
10566;DHT22;5331;48.148;16.326;2022-11-15T04:11:23;6.50;1.00
10566;DHT22;5331;48.148;16.326;2022-11-15T04:13:50;6.50;1.00
10566;DHT22;5331;48.148;16.326;2022-11-15T04:16:17;6.60;1.00
10566;DHT22;5331;48.148;16.326;2022-11-15T04:18:44;6.60;1.00
10566;DHT22;5331;48.148;16.326;2022-11-15T04:21:32;6.60;1.00
10566;DHT22;5331;48.148;16.326;2022-11-15T04:24:17;6.60;1.00
10566;DHT22;5331;48.148;16.326;2022-11-15T04:26:43;6.60;1.00
10566;DHT22;5331;48.148;16.326;2022-11-15T04:29:10;6.60;1.00
10566;DHT22;5331;48.148;16.326;2022-11-15T04:31:55;6.60;1.00
10566;DHT22;5331;48.148;16.326;2022-11-15T04:34:22;6.60;1.00
10566;DHT22;5331;48.148;16.326;2022-11-15T04:36:50;6.60;1.00
10566;DHT22;5331;48.148;16.326;2022-11-15T04:39:34;6.60;1.00
10566;DHT22;5331;48.148;16.326;2022-11-15T04:42:01;6.70;1.00
10566;DHT22;5331;48.148;16.326;2022-11-15T04:44:28;6.60;1.00
10566;DHT22;5331;48.148;16.326;2022-11-15T04:46:56;6.60;1.00
10566;DHT22;5331;48.148;16.326;2022-11-15T04:49:23;6.60;1.00
10566;DHT22;5331;48.148;16.326;2022-11-15T04:51:51;6.70;1.00
10566;DHT22;5331;48.148;16.326;2022-11-15T04:54:18;6.70;1.00
10566;DHT22;5331;48.148;16.326;2022-11-15T04:56:45;6.60;1.00
10566;DHT22;5331;48.148;16.326;2022-11-15T04:59:12;6.60;1.00
10566;DHT22;5331;48.148;16.326;2022-11-15T05:01:39;6.70;1.00
10566;DHT22;5331;48.148;16.326;2022-11-15T05:04:06;6.70;1.00
10566;DHT22;5331;48.148;16.326;2022-11-15T05:06:44;6.70;1.00
10566;DHT22;5331;48.148;16.326;2022-11-15T05:09:13;6.70;1.00
10566;DHT22;5331;48.148;16.326;2022-11-15T05:11:40;6.80;1.00
10566;DHT22;5331;48.148;16.326;2022-11-15T05:14:07;6.70;1.00
10566;DHT22;5331;48.148;16.326;2022-11-15T05:16:34;6.70;1.00
10566;DHT22;5331;48.148;16.326;2022-11-15T05:19:01;6.70;1.00
10566;DHT22;5331;48.148;16.326;2022-11-15T05:21:28;6.70;1.00
10566;DHT22;5331;48.148;16.326;2022-11-15T05:23:57;6.70;1.00
10566;DHT22;5331;48.148;16.326;2022-11-15T05:26:25;6.70;1.00
10566;DHT22;5331;48.148;16.326;2022-11-15T05:28:53;6.70;1.00
10566;DHT22;5331;48.148;16.326;2022-11-15T05:31:21;6.70;1.00
10566;DHT22;5331;48.148;16.326;2022-11-15T05:33:49;6.70;1.00
10566;DHT22;5331;48.148;16.326;2022-11-15T05:36:20;6.70;1.00
10566;DHT22;5331;48.148;16.326;2022-11-15T05:38:49;6.70;1.00
10566;DHT22;5331;48.148;16.326;2022-11-15T05:41:17;6.70;1.00
10566;DHT22;5331;48.148;16.326;2022-11-15T05:43:47;6.70;1.00
10566;DHT22;5331;48.148;16.326;2022-11-15T05:46:15;6.70;1.00
10566;DHT22;5331;48.148;16.326;2022-11-15T05:48:44;6.70;1.00
10566;DHT22;5331;48.148;16.326;2022-11-15T05:51:12;6.70;1.00
10566;DHT22;5331;48.148;16.326;2022-11-15T05:53:41;6.70;1.00
10566;DHT22;5331;48.148;16.326;2022-11-15T05:56:09;6.70;1.00
10566;DHT22;5331;48.148;16.326;2022-11-15T05:58:37;6.70;1.00
10566;DHT22;5331;48.148;16.326;2022-11-15T06:01:05;6.80;1.00
10566;DHT22;5331;48.148;16.326;2022-11-15T06:03:32;6.70;1.00
10566;DHT22;5331;48.148;16.326;2022-11-15T06:05:59;6.70;1.00
10566;DHT22;5331;48.148;16.326;2022-11-15T06:08:27;6.70;1.00
10566;DHT22;5331;48.148;16.326;2022-11-15T06:10:54;6.80;1.00
10566;DHT22;5331;48.148;16.326;2022-11-15T06:13:21;6.80;1.00
10566;DHT22;5331;48.148;16.326;2022-11-15T06:15:48;6.70;1.00
10566;DHT22;5331;48.148;16.326;2022-11-15T06:18:16;6.70;1.00
10566;DHT22;5331;48.148;16.326;2022-11-15T06:20:43;6.70;1.00
10566;DHT22;5331;48.148;16.326;2022-11-15T06:23:10;6.70;1.00
10566;DHT22;5331;48.148;16.326;2022-11-15T06:25:37;6.70;1.00
10566;DHT22;5331;48.148;16.326;2022-11-15T06:28:04;6.70;1.00
10566;DHT22;5331;48.148;16.326;2022-11-15T06:30:31;6.70;1.00
10566;DHT22;5331;48.148;16.326;2022-11-15T06:33:01;6.70;1.00
10566;DHT22;5331;48.148;16.326;2022-11-15T06:35:32;6.70;1.00
10566;DHT22;5331;48.148;16.326;2022-11-15T06:38:02;6.80;1.00
10566;DHT22;5331;48.148;16.326;2022-11-15T06:40:29;6.70;1.00
10566;DHT22;5331;48.148;16.326;2022-11-15T06:42:58;6.70;1.00
10566;DHT22;5331;48.148;16.326;2022-11-15T06:45:25;6.80;1.00
10566;DHT22;5331;48.148;16.326;2022-11-15T06:47:52;6.70;1.00
10566;DHT22;5331;48.148;16.326;2022-11-15T06:50:19;6.70;1.00
10566;DHT22;5331;48.148;16.326;2022-11-15T06:52:47;6.70;1.00
10566;DHT22;5331;48.148;16.326;2022-11-15T06:55:15;6.80;1.00
10566;DHT22;5331;48.148;16.326;2022-11-15T06:57:47;6.80;1.00
10566;DHT22;5331;48.148;16.326;2022-11-15T07:00:15;6.80;1.00
10566;DHT22;5331;48.148;16.326;2022-11-15T07:02:43;6.80;1.00
10566;DHT22;5331;48.148;16.326;2022-11-15T07:05:10;6.80;1.00
10566;DHT22;5331;48.148;16.326;2022-11-15T07:07:37;6.80;1.00
10566;DHT22;5331;48.148;16.326;2022-11-15T07:10:07;6.80;1.00
10566;DHT22;5331;48.148;16.326;2022-11-15T07:12:35;6.80;1.00
10566;DHT22;5331;48.148;16.326;2022-11-15T07:15:02;6.80;1.00
10566;DHT22;5331;48.148;16.326;2022-11-15T07:17:29;6.80;1.00
10566;DHT22;5331;48.148;16.326;2022-11-15T07:19:56;6.80;1.00
10566;DHT22;5331;48.148;16.326;2022-11-15T07:22:23;6.70;1.00
10566;DHT22;5331;48.148;16.326;2022-11-15T07:24:50;6.80;1.00
10566;DHT22;5331;48.148;16.326;2022-11-15T07:27:18;6.80;1.00
10566;DHT22;5331;48.148;16.326;2022-11-15T07:29:45;6.80;1.00
10566;DHT22;5331;48.148;16.326;2022-11-15T07:32:12;6.80;1.00
10566;DHT22;5331;48.148;16.326;2022-11-15T07:34:39;6.80;1.00
10566;DHT22;5331;48.148;16.326;2022-11-15T07:37:05;6.90;1.00
10566;DHT22;5331;48.148;16.326;2022-11-15T07:39:33;6.90;1.00
10566;DHT22;5331;48.148;16.326;2022-11-15T07:41:59;6.90;1.00
10566;DHT22;5331;48.148;16.326;2022-11-15T07:44:45;6.90;1.00
10566;DHT22;5331;48.148;16.326;2022-11-15T07:47:12;6.90;1.00
10566;DHT22;5331;48.148;16.326;2022-11-15T07:49:39;6.90;1.00
10566;DHT22;5331;48.148;16.326;2022-11-15T07:52:06;6.90;1.00
10566;DHT22;5331;48.148;16.326;2022-11-15T07:54:33;6.90;1.00
10566;DHT22;5331;48.148;16.326;2022-11-15T07:57:00;7.00;1.00
10566;DHT22;5331;48.148;16.326;2022-11-15T07:59:27;6.90;1.00
10566;DHT22;5331;48.148;16.326;2022-11-15T08:01:56;6.90;1.00
10566;DHT22;5331;48.148;16.326;2022-11-15T08:04:22;7.00;1.00
10566;DHT22;5331;48.148;16.326;2022-11-15T08:06:49;7.00;1.00
10566;DHT22;5331;48.148;16.326;2022-11-15T08:09:16;7.20;1.00
10566;DHT22;5331;48.148;16.326;2022-11-15T08:11:43;7.20;1.00
10566;DHT22;5331;48.148;16.326;2022-11-15T08:14:10;7.20;1.00
10566;DHT22;5331;48.148;16.326;2022-11-15T08:16:37;7.20;1.00
10566;DHT22;5331;48.148;16.326;2022-11-15T08:19:06;7.10;1.00
10566;DHT22;5331;48.148;16.326;2022-11-15T08:21:33;7.10;1.00
10566;DHT22;5331;48.148;16.326;2022-11-15T08:24:00;7.10;1.00
10566;DHT22;5331;48.148;16.326;2022-11-15T08:26:27;7.10;1.00
10566;DHT22;5331;48.148;16.326;2022-11-15T08:28:55;7.10;1.00
10566;DHT22;5331;48.148;16.326;2022-11-15T08:31:22;7.10;1.00
10566;DHT22;5331;48.148;16.326;2022-11-15T08:33:49;7.10;1.00
10566;DHT22;5331;48.148;16.326;2022-11-15T08:36:17;7.10;1.00
10566;DHT22;5331;48.148;16.326;2022-11-15T08:38:45;7.10;1.00
10566;DHT22;5331;48.148;16.326;2022-11-15T08:41:16;7.00;1.00
10566;DHT22;5331;48.148;16.326;2022-11-15T08:43:46;7.10;1.00
10566;DHT22;5331;48.148;16.326;2022-11-15T08:46:13;7.00;1.00
10566;DHT22;5331;48.148;16.326;2022-11-15T08:48:40;7.10;1.00
10566;DHT22;5331;48.148;16.326;2022-11-15T08:51:07;7.10;1.00
10566;DHT22;5331;48.148;16.326;2022-11-15T08:53:36;7.10;1.00
10566;DHT22;5331;48.148;16.326;2022-11-15T08:56:03;7.10;1.00
10566;DHT22;5331;48.148;16.326;2022-11-15T08:58:33;7.10;1.00
10566;DHT22;5331;48.148;16.326;2022-11-15T09:01:00;7.10;1.00
10566;DHT22;5331;48.148;16.326;2022-11-15T09:03:27;7.10;1.00
10566;DHT22;5331;48.148;16.326;2022-11-15T09:05:55;7.10;1.00
10566;DHT22;5331;48.148;16.326;2022-11-15T09:08:22;7.10;1.00
10566;DHT22;5331;48.148;16.326;2022-11-15T09:10:50;7.10;1.00
10566;DHT22;5331;48.148;16.326;2022-11-15T09:13:17;7.20;1.00
10566;DHT22;5331;48.148;16.326;2022-11-15T09:15:44;7.10;1.00
10566;DHT22;5331;48.148;16.326;2022-11-15T09:18:12;7.10;1.00
10566;DHT22;5331;48.148;16.326;2022-11-15T09:20:39;7.10;1.00
10566;DHT22;5331;48.148;16.326;2022-11-15T09:23:06;7.10;1.00
10566;DHT22;5331;48.148;16.326;2022-11-15T09:25:33;7.10;1.00
10566;DHT22;5331;48.148;16.326;2022-11-15T09:28:05;7.20;1.00
10566;DHT22;5331;48.148;16.326;2022-11-15T09:30:33;7.20;1.00
10566;DHT22;5331;48.148;16.326;2022-11-15T09:33:06;7.20;1.00
10566;DHT22;5331;48.148;16.326;2022-11-15T09:35:34;7.30;1.00
10566;DHT22;5331;48.148;16.326;2022-11-15T09:38:01;7.30;1.00
10566;DHT22;5331;48.148;16.326;2022-11-15T09:40:30;7.30;1.00
10566;DHT22;5331;48.148;16.326;2022-11-15T09:43:13;7.30;1.00
10566;DHT22;5331;48.148;16.326;2022-11-15T09:45:53;7.40;1.00
10566;DHT22;5331;48.148;16.326;2022-11-15T09:48:42;7.30;1.00
10566;DHT22;5331;48.148;16.326;2022-11-15T09:51:16;7.40;1.00
10566;DHT22;5331;48.148;16.326;2022-11-15T09:53:50;7.30;1.00
10566;DHT22;5331;48.148;16.326;2022-11-15T09:56:21;7.40;1.00
10566;DHT22;5331;48.148;16.326;2022-11-15T09:58:54;7.40;1.00
10566;DHT22;5331;48.148;16.326;2022-11-15T10:01:36;7.40;1.00
10566;DHT22;5331;48.148;16.326;2022-11-15T10:04:05;7.40;1.00
10566;DHT22;5331;48.148;16.326;2022-11-15T10:06:36;7.30;1.00
10566;DHT22;5331;48.148;16.326;2022-11-15T10:09:09;7.30;1.00
10566;DHT22;5331;48.148;16.326;2022-11-15T10:11:39;7.30;1.00
10566;DHT22;5331;48.148;16.326;2022-11-15T10:14:12;7.40;1.00
10566;DHT22;5331;48.148;16.326;2022-11-15T10:17:06;7.30;1.00
10566;DHT22;5331;48.148;16.326;2022-11-15T10:19:41;7.40;1.00
10566;DHT22;5331;48.148;16.326;2022-11-15T10:22:35;7.40;1.00
10566;DHT22;5331;48.148;16.326;2022-11-15T10:25:23;7.40;1.00
10566;DHT22;5331;48.148;16.326;2022-11-15T10:27:54;7.40;1.00
10566;DHT22;5331;48.148;16.326;2022-11-15T10:30:28;7.40;1.00
10566;DHT22;5331;48.148;16.326;2022-11-15T10:32:55;7.50;1.00
10566;DHT22;5331;48.148;16.326;2022-11-15T10:35:26;7.50;1.00
10566;DHT22;5331;48.148;16.326;2022-11-15T10:38:05;7.50;1.00
10566;DHT22;5331;48.148;16.326;2022-11-15T10:40:33;7.50;1.00
10566;DHT22;5331;48.148;16.326;2022-11-15T10:43:17;7.50;1.00
10566;DHT22;5331;48.148;16.326;2022-11-15T10:45:46;7.60;1.00
10566;DHT22;5331;48.148;16.326;2022-11-15T10:48:24;7.50;1.00
10566;DHT22;5331;48.148;16.326;2022-11-15T10:50:52;7.60;1.00
10566;DHT22;5331;48.148;16.326;2022-11-15T10:53:24;7.60;1.00
10566;DHT22;5331;48.148;16.326;2022-11-15T10:55:54;7.60;1.00
10566;DHT22;5331;48.148;16.326;2022-11-15T10:58:33;7.60;1.00
10566;DHT22;5331;48.148;16.326;2022-11-15T11:01:17;7.60;1.00
10566;DHT22;5331;48.148;16.326;2022-11-15T11:03:45;7.70;1.00
10566;DHT22;5331;48.148;16.326;2022-11-15T11:06:23;7.70;1.00
10566;DHT22;5331;48.148;16.326;2022-11-15T11:08:56;7.70;1.00
10566;DHT22;5331;48.148;16.326;2022-11-15T11:11:23;7.70;1.00
10566;DHT22;5331;48.148;16.326;2022-11-15T11:13:50;7.70;1.00
10566;DHT22;5331;48.148;16.326;2022-11-15T11:16:41;7.80;1.00
10566;DHT22;5331;48.148;16.326;2022-11-15T11:19:18;7.80;1.00
10566;DHT22;5331;48.148;16.326;2022-11-15T11:21:51;7.80;1.00
10566;DHT22;5331;48.148;16.326;2022-11-15T11:24:29;7.80;1.00
10566;DHT22;5331;48.148;16.326;2022-11-15T11:27:22;7.80;1.00
10566;DHT22;5331;48.148;16.326;2022-11-15T11:30:02;7.90;1.00
10566;DHT22;5331;48.148;16.326;2022-11-15T11:32:46;7.90;1.00
10566;DHT22;5331;48.148;16.326;2022-11-15T11:35:22;8.00;1.00
10566;DHT22;5331;48.148;16.326;2022-11-15T11:37:52;8.00;1.00
10566;DHT22;5331;48.148;16.326;2022-11-15T11:40:28;8.00;1.00
10566;DHT22;5331;48.148;16.326;2022-11-15T11:42:59;8.00;1.00
10566;DHT22;5331;48.148;16.326;2022-11-15T11:45:48;8.00;1.00
10566;DHT22;5331;48.148;16.326;2022-11-15T11:48:28;8.00;1.00
10566;DHT22;5331;48.148;16.326;2022-11-15T11:51:05;8.00;1.00
10566;DHT22;5331;48.148;16.326;2022-11-15T11:53:40;8.00;1.00
10566;DHT22;5331;48.148;16.326;2022-11-15T11:56:16;7.90;1.00
10566;DHT22;5331;48.148;16.326;2022-11-15T11:58:46;8.00;1.00
10566;DHT22;5331;48.148;16.326;2022-11-15T12:01:17;8.00;1.00
10566;DHT22;5331;48.148;16.326;2022-11-15T12:03:52;8.10;1.00
10566;DHT22;5331;48.148;16.326;2022-11-15T12:06:30;8.10;1.00
10566;DHT22;5331;48.148;16.326;2022-11-15T12:09:02;8.10;1.00
10566;DHT22;5331;48.148;16.326;2022-11-15T12:11:47;8.20;1.00
10566;DHT22;5331;48.148;16.326;2022-11-15T12:14:24;8.20;1.00
10566;DHT22;5331;48.148;16.326;2022-11-15T12:16:52;8.20;1.00
10566;DHT22;5331;48.148;16.326;2022-11-15T12:19:21;8.20;1.00
10566;DHT22;5331;48.148;16.326;2022-11-15T12:21:54;8.20;1.00
10566;DHT22;5331;48.148;16.326;2022-11-15T12:24:26;8.20;1.00
10566;DHT22;5331;48.148;16.326;2022-11-15T12:27:00;8.20;1.00
10566;DHT22;5331;48.148;16.326;2022-11-15T12:29:33;8.30;1.00
10566;DHT22;5331;48.148;16.326;2022-11-15T12:32:03;8.30;1.00
10566;DHT22;5331;48.148;16.326;2022-11-15T12:34:40;8.30;1.00
10566;DHT22;5331;48.148;16.326;2022-11-15T12:37:33;8.30;1.00
10566;DHT22;5331;48.148;16.326;2022-11-15T12:40:16;8.30;1.00
10566;DHT22;5331;48.148;16.326;2022-11-15T12:42:58;8.30;1.00
10566;DHT22;5331;48.148;16.326;2022-11-15T12:45:27;8.30;1.00
10566;DHT22;5331;48.148;16.326;2022-11-15T12:51:00;8.30;1.00
10566;DHT22;5331;48.148;16.326;2022-11-15T12:53:29;8.30;1.00
10566;DHT22;5331;48.148;16.326;2022-11-15T12:58:54;8.30;1.00
10566;DHT22;5331;48.148;16.326;2022-11-15T13:04:25;8.30;1.00
10566;DHT22;5331;48.148;16.326;2022-11-15T13:06:56;8.30;1.00
10566;DHT22;5331;48.148;16.326;2022-11-15T13:09:52;8.20;1.00
10566;DHT22;5331;48.148;16.326;2022-11-15T13:12:50;8.30;1.00
10566;DHT22;5331;48.148;16.326;2022-11-15T13:15:38;8.30;1.00
10566;DHT22;5331;48.148;16.326;2022-11-15T13:18:40;8.30;1.00
10566;DHT22;5331;48.148;16.326;2022-11-15T13:21:22;8.30;1.00
10566;DHT22;5331;48.148;16.326;2022-11-15T13:24:14;8.30;1.00
10566;DHT22;5331;48.148;16.326;2022-11-15T13:26:42;8.30;1.00
10566;DHT22;5331;48.148;16.326;2022-11-15T13:29:17;8.30;1.00
10566;DHT22;5331;48.148;16.326;2022-11-15T13:31:45;8.30;1.00
10566;DHT22;5331;48.148;16.326;2022-11-15T13:34:23;8.30;1.00
10566;DHT22;5331;48.148;16.326;2022-11-15T13:36:51;8.30;1.00
10566;DHT22;5331;48.148;16.326;2022-11-15T13:39:29;8.40;1.00
10566;DHT22;5331;48.148;16.326;2022-11-15T13:41:56;8.30;1.00
10566;DHT22;5331;48.148;16.326;2022-11-15T13:44:25;8.40;1.00
10566;DHT22;5331;48.148;16.326;2022-11-15T13:47:03;8.30;1.00
10566;DHT22;5331;48.148;16.326;2022-11-15T13:49:31;8.30;1.00
10566;DHT22;5331;48.148;16.326;2022-11-15T13:52:00;8.30;1.00
10566;DHT22;5331;48.148;16.326;2022-11-15T13:54:32;8.40;1.00
10566;DHT22;5331;48.148;16.326;2022-11-15T13:57:02;8.30;1.00
10566;DHT22;5331;48.148;16.326;2022-11-15T13:59:31;8.40;1.00
10566;DHT22;5331;48.148;16.326;2022-11-15T14:02:03;8.40;1.00
10566;DHT22;5331;48.148;16.326;2022-11-15T14:04:39;8.40;1.00
10566;DHT22;5331;48.148;16.326;2022-11-15T14:07:16;8.40;1.00
10566;DHT22;5331;48.148;16.326;2022-11-15T14:09:45;8.40;1.00
10566;DHT22;5331;48.148;16.326;2022-11-15T14:12:28;8.40;1.00
10566;DHT22;5331;48.148;16.326;2022-11-15T14:14:56;8.40;1.00
10566;DHT22;5331;48.148;16.326;2022-11-15T14:17:35;8.40;1.00
10566;DHT22;5331;48.148;16.326;2022-11-15T14:20:20;8.40;1.00
10566;DHT22;5331;48.148;16.326;2022-11-15T14:22:54;8.40;1.00
10566;DHT22;5331;48.148;16.326;2022-11-15T14:25:23;8.40;1.00
10566;DHT22;5331;48.148;16.326;2022-11-15T14:28:16;8.40;1.00
10566;DHT22;5331;48.148;16.326;2022-11-15T14:30:56;8.40;1.00
10566;DHT22;5331;48.148;16.326;2022-11-15T14:33:27;8.40;1.00
10566;DHT22;5331;48.148;16.326;2022-11-15T14:35:56;8.40;1.00
10566;DHT22;5331;48.148;16.326;2022-11-15T14:38:23;8.40;1.00
10566;DHT22;5331;48.148;16.326;2022-11-15T14:40:51;8.50;1.00
10566;DHT22;5331;48.148;16.326;2022-11-15T14:43:19;8.50;1.00
10566;DHT22;5331;48.148;16.326;2022-11-15T14:45:46;8.40;1.00
10566;DHT22;5331;48.148;16.326;2022-11-15T14:48:13;8.50;1.00
10566;DHT22;5331;48.148;16.326;2022-11-15T14:50:40;8.50;1.00
10566;DHT22;5331;48.148;16.326;2022-11-15T14:53:12;8.50;1.00
10566;DHT22;5331;48.148;16.326;2022-11-15T14:55:39;8.50;1.00
10566;DHT22;5331;48.148;16.326;2022-11-15T14:58:08;8.50;1.00
10566;DHT22;5331;48.148;16.326;2022-11-15T15:00:36;8.50;1.00
10566;DHT22;5331;48.148;16.326;2022-11-15T15:03:04;8.50;1.00
10566;DHT22;5331;48.148;16.326;2022-11-15T15:05:33;8.50;1.00
10566;DHT22;5331;48.148;16.326;2022-11-15T15:08:01;8.50;1.00
10566;DHT22;5331;48.148;16.326;2022-11-15T15:10:31;8.50;1.00
10566;DHT22;5331;48.148;16.326;2022-11-15T15:12:59;8.50;1.00
10566;DHT22;5331;48.148;16.326;2022-11-15T15:15:34;8.50;1.00
10566;DHT22;5331;48.148;16.326;2022-11-15T15:18:02;8.60;1.00
10566;DHT22;5331;48.148;16.326;2022-11-15T15:20:30;8.60;1.00
10566;DHT22;5331;48.148;16.326;2022-11-15T15:22:57;8.60;1.00
10566;DHT22;5331;48.148;16.326;2022-11-15T15:25:27;8.50;1.00
10566;DHT22;5331;48.148;16.326;2022-11-15T15:27:54;8.50;1.00
10566;DHT22;5331;48.148;16.326;2022-11-15T15:30:22;8.60;1.00
10566;DHT22;5331;48.148;16.326;2022-11-15T15:32:50;8.60;1.00
10566;DHT22;5331;48.148;16.326;2022-11-15T15:35:18;8.60;1.00
10566;DHT22;5331;48.148;16.326;2022-11-15T15:37:46;8.60;1.00
10566;DHT22;5331;48.148;16.326;2022-11-15T15:40:17;8.60;1.00
10566;DHT22;5331;48.148;16.326;2022-11-15T15:42:44;8.60;1.00
10566;DHT22;5331;48.148;16.326;2022-11-15T15:45:11;8.60;1.00
10566;DHT22;5331;48.148;16.326;2022-11-15T15:47:38;8.60;1.00
10566;DHT22;5331;48.148;16.326;2022-11-15T15:50:20;8.60;1.00
10566;DHT22;5331;48.148;16.326;2022-11-15T15:52:48;8.60;1.00
10566;DHT22;5331;48.148;16.326;2022-11-15T15:55:15;8.60;1.00
10566;DHT22;5331;48.148;16.326;2022-11-15T15:57:43;8.60;1.00
10566;DHT22;5331;48.148;16.326;2022-11-15T16:00:10;8.70;1.00
10566;DHT22;5331;48.148;16.326;2022-11-15T16:02:37;8.70;1.00
10566;DHT22;5331;48.148;16.326;2022-11-15T16:05:05;8.70;1.00
10566;DHT22;5331;48.148;16.326;2022-11-15T16:07:34;8.70;1.00
10566;DHT22;5331;48.148;16.326;2022-11-15T16:10:01;8.70;1.00
10566;DHT22;5331;48.148;16.326;2022-11-15T16:12:30;8.70;1.00
10566;DHT22;5331;48.148;16.326;2022-11-15T16:14:57;8.70;1.00
10566;DHT22;5331;48.148;16.326;2022-11-15T16:17:26;8.70;1.00
10566;DHT22;5331;48.148;16.326;2022-11-15T16:19:53;8.70;1.00
10566;DHT22;5331;48.148;16.326;2022-11-15T16:22:20;8.70;1.00
10566;DHT22;5331;48.148;16.326;2022-11-15T16:24:49;8.70;1.00
10566;DHT22;5331;48.148;16.326;2022-11-15T16:27:18;8.70;1.00
10566;DHT22;5331;48.148;16.326;2022-11-15T16:29:46;8.70;1.00
10566;DHT22;5331;48.148;16.326;2022-11-15T16:32:13;8.60;1.00
10566;DHT22;5331;48.148;16.326;2022-11-15T16:34:41;8.60;1.00
10566;DHT22;5331;48.148;16.326;2022-11-15T16:37:20;8.60;1.00